Time;durP1;ratioP1;P1;durP2;ratioP2;P2;SDS_P1;SDS_P2;PMS_P1;PMS_P2;Temp;Humidity;BMP_temperature;BMP_pressure;BME280_temperature;BME280_humidity;BME280_pressure;Samples;Min_cycle;Max_cycle;Signal;HPM_P1;HPM_P2
2023/09/03 10:49:11;;;;;;;19.33;10.15;;;28.10;78.60;;;;;;6127727;23;86086;-81
2023/09/03 11:10:27;;;;;;;10.02;7.13;;;28.60;71.30;;;;;;4849211;27;2027680;-58
2023/09/03 11:15:23;;;;;;;14.57;8.10;;;26.10;74.60;;;;;;4878837;27;86301;-56
2023/09/03 11:36:00;;;;;;;7.45;5.80;;;29.30;70.70;;;;;;4889746;28;86385;-75
2023/09/03 11:38:27;;;;;;;6.47;4.93;;;29.80;73.60;;;;;;4923589;28;87490;-76
2023/09/03 11:40:55;;;;;;;8.98;5.50;;;30.30;73.60;;;;;;4981872;28;86835;-76
2023/09/03 11:43:21;;;;;;;5.55;3.90;;;30.60;66.10;;;;;;4981122;28;86560;-75
2023/09/03 11:45:47;;;;;;;3.85;3.45;;;30.90;66.70;;;;;;4980792;28;86887;-77
2023/09/03 11:48:13;;;;;;;4.47;3.22;;;31.20;63.90;;;;;;4966277;28;90326;-76
2023/09/03 11:50:39;;;;;;;7.95;4.20;;;31.30;64.20;;;;;;4977196;28;86798;-76
2023/09/03 11:53:09;;;;;;;4.45;3.80;;;31.50;64.70;;;;;;4978815;28;86469;-76
2023/09/03 11:55:42;;;;;;;4.55;3.88;;;31.50;65.10;;;;;;4977952;28;86700;-76
2023/09/03 11:58:14;;;;;;;5.07;3.20;;;31.60;64.10;;;;;;4964360;28;90573;-76
2023/09/03 12:00:41;;;;;;;4.10;2.93;;;31.80;64.70;;;;;;4979920;28;86639;-76
2023/09/03 12:03:07;;;;;;;3.72;3.00;;;31.90;63.60;;;;;;4981886;28;86536;-76
2023/09/03 12:05:35;;;;;;;3.90;2.92;;;32.00;63.10;;;;;;4980652;28;86500;-76
2023/09/03 12:11:31;;;;;;;3.15;2.47;;;32.30;61.60;;;;;;4993356;27;86623;-76
2023/09/03 12:13:57;;;;;;;2.72;2.53;;;32.50;58.40;;;;;;4981627;28;86518;-76
2023/09/03 12:16:24;;;;;;;4.20;2.65;;;32.50;60.10;;;;;;4983067;27;86492;-75
2023/09/03 12:19:02;;;;;;;6.13;3.58;;;32.50;57.30;;;;;;4982259;28;90114;-76
2023/09/03 12:21:33;;;;;;;4.57;3.78;;;32.60;58.70;;;;;;4982211;28;86769;-76
2023/09/03 12:24:03;;;;;;;5.63;3.72;;;32.40;56.40;;;;;;4983730;28;86662;-76
2023/09/03 12:26:30;;;;;;;4.10;3.05;;;32.40;55.10;;;;;;4982899;28;85754;-76
2023/09/03 12:28:58;;;;;;;6.00;3.33;;;32.40;57.90;;;;;;4983027;28;86487;-76
2023/09/03 12:31:41;;;;;;;3.28;2.90;;;32.70;57.10;;;;;;4983571;28;86617;-76
2023/09/03 12:34:08;;;;;;;2.92;2.67;;;32.90;55.90;;;;;;4984901;28;86287;-76
2023/09/03 12:36:51;;;;;;;3.40;2.40;;;32.70;54.50;;;;;;4980957;28;86025;-76
2023/09/03 12:39:30;;;;;;;2.80;2.40;;;32.80;57.90;;;;;;4973696;28;86608;-76
2023/09/03 12:41:57;;;;;;;5.85;2.50;;;33.40;55.40;;;;;;4970047;28;86405;-76
2023/09/03 12:44:24;;;;;;;3.00;2.40;;;33.70;55.20;;;;;;4969762;28;85873;-75
2023/09/03 12:46:50;;;;;;;3.30;2.60;;;33.80;57.30;;;;;;4967930;28;86088;-76
2023/09/03 12:49:16;;;;;;;6.93;2.60;;;33.80;54.40;;;;;;4970267;28;86440;-76
2023/09/03 12:52:15;;;;;;;;;;;;;;;;;;;;;
2023/09/03 12:54:41;;;;;;;3.40;2.60;;;33.70;58.20;;;;;;4944119;28;112586;-77
2023/09/03 12:57:07;;;;;;;3.35;2.65;;;34.20;52.70;;;;;;4968615;28;86281;-76
2023/09/03 13:00:06;;;;;;;;;;;;;;;;;;;;;
2023/09/03 13:02:40;;;;;;;2.53;1.85;;;34.70;51.50;;;;;;4967444;28;114538;-76
2023/09/03 13:05:06;;;;;;;2.75;1.77;;;34.90;51.40;;;;;;4969744;28;86323;-76
2023/09/03 13:48:47;;;;;;;1.65;1.55;;;35.90;47.60;;;;;;4866983;28;86467;-76
2023/09/03 13:55:31;;;;;;;2.20;1.60;;;36.50;46.70;;;;;;4876894;28;90908;-76
2023/09/03 13:58:03;;;;;;;2.28;1.63;;;36.90;46.60;;;;;;4871953;28;86969;-76
2023/09/03 14:04:03;;;;;;;1.98;1.38;;;37.10;44.60;;;;;;4923329;28;88638;-76
2023/09/03 14:22:21;;;;;;;2.00;1.80;;;37.50;43.00;;;;;;4926528;28;86641;-75
2023/09/03 14:24:49;;;;;;;2.10;1.90;;;37.50;43.40;;;;;;4927363;28;86222;-75
2023/09/03 14:28:02;;;;;;;2.03;1.92;;;37.10;44.00;;;;;;4924260;28;86900;-77
2023/09/03 14:30:41;;;;;;;1.90;1.80;;;37.20;43.90;;;;;;4887100;28;89660;-76
2023/09/03 14:33:30;;;;;;;2.47;2.28;;;37.10;45.10;;;;;;4897687;28;86551;-76
2023/09/03 14:39:50;;;;;;;;;;;;;;;;;;;;;
2023/09/03 14:42:20;;;;;;;4.90;2.50;;;37.40;44.70;;;;;;4948179;28;115194;-75
2023/09/03 14:44:53;;;;;;;3.90;2.50;;;37.40;44.00;;;;;;4966104;28;86381;-76
2023/09/03 14:47:32;;;;;;;4.35;2.95;;;37.70;44.20;;;;;;4968883;28;86019;-76
2023/09/03 14:50:17;;;;;;;2.58;2.38;;;37.80;44.20;;;;;;4958145;28;88399;-75
2023/09/03 14:53:17;;;;;;;2.40;2.20;;;38.00;43.20;;;;;;4958423;28;88044;-76
2023/09/03 14:56:11;;;;;;;3.03;2.45;;;38.10;43.40;;;;;;4977946;28;86767;-79
2023/09/03 14:58:40;;;;;;;2.97;2.67;;;37.70;42.90;;;;;;4956245;28;86762;-76
2023/09/03 15:01:22;;;;;;;4.75;2.90;;;37.60;43.10;;;;;;4960609;28;88165;-76
2023/09/03 15:03:50;;;;;;;2.58;2.38;;;37.20;44.10;;;;;;4961568;28;91519;-77
2023/09/03 15:06:17;;;;;;;2.67;2.47;;;37.20;45.50;;;;;;4957410;28;86261;-76
2023/09/03 15:08:49;;;;;;;2.50;2.30;;;37.00;44.80;;;;;;4962417;28;86369;-76
2023/09/03 15:11:15;;;;;;;2.75;2.38;;;36.50;44.50;;;;;;4961990;28;90150;-77
2023/09/03 15:13:50;;;;;;;3.33;2.30;;;36.30;43.90;;;;;;4960776;28;86445;-76
2023/09/03 15:16:17;;;;;;;6.25;2.10;;;36.30;45.40;;;;;;4960365;28;86404;-75
2023/09/03 15:18:43;;;;;;;3.60;2.40;;;36.50;44.40;;;;;;4959640;28;86509;-75
2023/09/03 15:21:08;;;;;;;5.35;2.58;;;36.60;44.60;;;;;;4961362;28;86236;-76
2023/09/03 15:23:34;;;;;;;3.35;2.55;;;36.80;42.20;;;;;;4960142;28;86318;-75
2023/09/03 15:26:03;;;;;;;4.22;2.42;;;37.10;44.60;;;;;;4960621;28;86347;-76
2023/09/03 15:28:31;;;;;;;6.32;2.50;;;37.40;44.10;;;;;;4961046;28;86338;-76
2023/09/03 15:30:57;;;;;;;2.50;2.30;;;37.50;43.10;;;;;;4962111;28;87813;-76
2023/09/03 15:33:22;;;;;;;3.05;2.47;;;37.70;42.90;;;;;;4961214;28;87660;-76
2023/09/03 15:35:48;;;;;;;4.63;2.20;;;37.80;43.10;;;;;;4962616;28;86073;-76
2023/09/03 15:38:15;;;;;;;2.88;2.60;;;38.00;41.90;;;;;;4962476;28;86843;-76
2023/09/03 15:40:41;;;;;;;3.25;2.35;;;38.20;42.30;;;;;;4959770;28;90048;-76
2023/09/03 15:43:10;;;;;;;2.40;2.20;;;38.20;42.30;;;;;;4961149;28;86803;-75
2023/09/03 15:45:36;;;;;;;2.50;2.03;;;38.10;40.80;;;;;;4961509;28;86799;-76
2023/09/03 15:48:02;;;;;;;2.80;2.35;;;38.20;42.50;;;;;;4963587;28;86641;-76
2023/09/03 15:50:29;;;;;;;2.45;2.25;;;38.40;41.70;;;;;;4960317;28;87309;-77
2023/09/03 15:52:55;;;;;;;4.63;2.28;;;38.60;41.50;;;;;;4960348;28;86633;-76
2023/09/03 15:55:24;;;;;;;2.15;1.92;;;38.70;41.50;;;;;;4960320;28;86212;-75
2023/09/03 15:57:50;;;;;;;3.10;2.25;;;38.60;41.00;;;;;;4960822;28;86458;-76
2023/09/03 16:00:19;;;;;;;5.55;2.45;;;38.40;41.60;;;;;;4960587;28;87165;-76
2023/09/03 16:02:45;;;;;;;2.95;2.50;;;38.30;41.30;;;;;;4960330;28;86824;-76
2023/09/03 16:05:11;;;;;;;2.40;1.83;;;38.20;41.30;;;;;;4961947;28;93250;-76
2023/09/03 16:07:40;;;;;;;2.08;1.80;;;37.90;41.80;;;;;;4970632;28;86045;-76
2023/09/03 16:10:06;;;;;;;2.15;1.95;;;37.40;41.20;;;;;;4967477;28;87457;-75
2023/09/03 16:12:31;;;;;;;1.98;1.75;;;36.90;41.60;;;;;;4965523;28;86407;-77
2023/09/03 16:14:58;;;;;;;1.90;1.80;;;36.60;41.40;;;;;;4965795;28;87512;-76
2023/09/03 16:17:23;;;;;;;2.13;1.70;;;36.60;42.60;;;;;;4971002;28;86893;-76
2023/09/03 16:19:49;;;;;;;1.70;1.60;;;36.50;43.70;;;;;;4969542;28;88309;-75
2023/09/03 16:22:18;;;;;;;2.72;1.65;;;36.10;43.40;;;;;;4975127;28;86286;-76
2023/09/03 16:24:44;;;;;;;2.60;1.90;;;35.60;43.40;;;;;;4971863;28;86593;-76
2023/09/03 16:27:10;;;;;;;2.85;2.30;;;35.50;45.20;;;;;;4971999;28;86593;-75
2023/09/03 16:29:36;;;;;;;3.47;2.22;;;35.30;44.30;;;;;;4968353;28;89758;-76
2023/09/03 16:32:05;;;;;;;2.35;2.15;;;35.30;44.20;;;;;;4969904;28;86957;-76
2023/09/03 16:34:32;;;;;;;3.38;2.13;;;35.10;45.30;;;;;;4977029;28;86231;-76
2023/09/03 16:36:58;;;;;;;3.72;2.10;;;34.70;46.00;;;;;;4975058;28;86091;-76
2023/09/03 16:39:35;;;;;;;2.38;1.85;;;34.60;46.30;;;;;;4974002;28;86527;-76
2023/09/03 16:42:01;;;;;;;2.83;2.05;;;34.60;45.80;;;;;;4973979;28;87429;-77
2023/09/03 16:44:29;;;;;;;2.25;2.05;;;34.90;45.90;;;;;;4980746;28;85989;-76
2023/09/03 16:46:55;;;;;;;3.33;2.20;;;34.80;45.90;;;;;;4985049;28;86116;-76
2023/09/03 16:49:23;;;;;;;2.30;1.88;;;34.60;46.30;;;;;;4972220;28;94109;-76
2023/09/03 16:51:49;;;;;;;4.05;2.17;;;34.30;47.60;;;;;;4971957;28;86422;-76
2023/09/03 16:54:17;;;;;;;2.50;2.03;;;34.10;47.90;;;;;;4971912;28;85926;-76
2023/09/03 16:56:43;;;;;;;2.65;2.17;;;33.80;48.80;;;;;;4969940;28;86209;-75
2023/09/03 16:59:08;;;;;;;2.38;2.13;;;33.40;47.60;;;;;;4977775;28;87251;-76
2023/09/03 17:01:38;;;;;;;3.25;1.88;;;33.00;49.70;;;;;;4994813;28;86924;-76
2023/09/03 17:04:04;;;;;;;2.30;2.03;;;32.70;49.60;;;;;;4975054;28;85845;-76
2023/09/03 17:06:30;;;;;;;2.53;2.30;;;32.50;50.40;;;;;;4978723;28;86356;-76
2023/09/03 17:09:04;;;;;;;2.85;2.13;;;32.30;50.60;;;;;;4970412;28;87686;-76
2023/09/03 17:11:30;;;;;;;3.20;2.05;;;32.10;51.20;;;;;;4969691;28;86397;-75
2023/09/03 17:13:55;;;;;;;3.22;1.98;;;31.90;51.10;;;;;;4967246;28;86819;-76
2023/09/03 17:16:21;;;;;;;2.28;1.90;;;31.70;51.40;;;;;;4965783;28;86414;-76
2023/09/03 17:18:50;;;;;;;2.85;2.00;;;31.40;52.60;;;;;;4972572;28;87249;-76
2023/09/03 17:21:21;;;;;;;2.40;2.20;;;31.10;53.60;;;;;;4968595;28;89032;-75
2023/09/03 17:23:47;;;;;;;2.88;2.55;;;30.60;54.90;;;;;;4970027;28;86689;-75
2023/09/03 17:26:16;;;;;;;2.58;2.20;;;30.20;56.00;;;;;;4961336;28;85916;-75
2023/09/03 17:28:42;;;;;;;2.45;2.25;;;29.70;55.80;;;;;;4971786;28;87008;-75
2023/09/03 17:31:10;;;;;;;4.20;2.20;;;29.20;56.70;;;;;;4967859;28;86826;-76
2023/09/03 17:33:36;;;;;;;2.33;2.08;;;28.90;58.30;;;;;;4967235;28;86658;-75
2023/09/03 17:36:08;;;;;;;3.42;2.30;;;28.60;58.90;;;;;;4974141;28;86230;-76
2023/09/03 17:38:37;;;;;;;2.70;2.08;;;28.20;59.50;;;;;;4973448;28;87975;-75
2023/09/03 17:41:03;;;;;;;2.60;2.35;;;27.90;61.20;;;;;;4972220;28;89874;-75
2023/09/03 17:43:33;;;;;;;3.33;2.40;;;27.50;61.60;;;;;;4991923;28;86428;-75
2023/09/03 17:45:59;;;;;;;3.88;2.35;;;27.20;62.20;;;;;;4971774;28;86890;-76
2023/09/03 17:48:24;;;;;;;3.22;2.22;;;26.90;63.60;;;;;;4956879;28;87341;-76
2023/09/03 17:50:52;;;;;;;3.95;2.22;;;26.60;64.20;;;;;;4968329;28;85968;-75
2023/09/03 17:53:18;;;;;;;3.75;2.65;;;26.30;65.00;;;;;;4966844;28;86603;-75
2023/09/03 17:55:44;;;;;;;2.80;2.50;;;26.10;66.10;;;;;;4965998;28;85934;-75
2023/09/03 17:58:12;;;;;;;5.05;2.83;;;25.80;66.70;;;;;;4967183;28;90189;-76
2023/09/03 18:00:38;;;;;;;2.63;2.22;;;25.60;67.90;;;;;;4965134;28;86527;-76
2023/09/03 18:03:04;;;;;;;3.63;2.90;;;25.40;68.50;;;;;;4964686;28;86085;-75
2023/09/03 18:05:30;;;;;;;5.10;2.60;;;25.20;69.60;;;;;;4978542;28;86336;-75
2023/09/03 18:07:56;;;;;;;3.70;2.80;;;24.90;70.90;;;;;;4974290;28;86249;-75
2023/09/03 18:10:22;;;;;;;3.35;3.05;;;24.70;70.50;;;;;;4991939;28;86853;-75
2023/09/03 18:12:47;;;;;;;3.28;2.78;;;24.50;71.80;;;;;;4969768;28;86623;-75
2023/09/03 18:15:16;;;;;;;5.55;2.95;;;24.30;73.30;;;;;;4969804;28;85929;-75
2023/09/03 18:17:41;;;;;;;4.90;2.80;;;24.10;73.70;;;;;;4965869;28;90640;-75
2023/09/03 18:20:07;;;;;;;3.03;2.60;;;23.90;74.60;;;;;;4956745;28;89552;-75
2023/09/03 18:22:34;;;;;;;4.38;2.80;;;23.60;76.00;;;;;;4957200;28;86505;-75
2023/09/03 18:25:00;;;;;;;4.68;3.30;;;23.40;77.30;;;;;;4971476;28;86963;-75
2023/09/03 18:27:28;;;;;;;5.40;3.08;;;23.20;78.70;;;;;;4968667;28;90203;-75
2023/09/03 18:29:54;;;;;;;4.70;3.17;;;22.90;80.40;;;;;;4959237;28;87399;-75
2023/09/03 18:32:19;;;;;;;3.30;2.90;;;22.70;81.90;;;;;;4955848;28;85872;-75
2023/09/03 18:34:45;;;;;;;3.30;3.00;;;22.40;83.00;;;;;;4958693;28;87149;-75
2023/09/03 18:37:11;;;;;;;3.47;3.17;;;22.20;85.10;;;;;;4957012;28;87270;-75
2023/09/03 18:39:37;;;;;;;3.92;2.90;;;22.00;86.60;;;;;;4958283;28;86858;-75
2023/09/03 18:42:02;;;;;;;7.90;3.80;;;21.90;87.40;;;;;;4957780;28;87521;-76
2023/09/03 18:44:31;;;;;;;5.40;3.45;;;21.60;88.10;;;;;;4958274;28;85964;-75
2023/09/03 18:47:00;;;;;;;4.60;3.50;;;21.40;89.80;;;;;;4954433;28;90620;-75
2023/09/03 18:49:26;;;;;;;3.88;3.30;;;21.20;90.40;;;;;;4956994;28;87202;-74
2023/09/03 18:51:52;;;;;;;4.50;3.88;;;21.10;91.00;;;;;;4960567;28;85931;-74
2023/09/03 18:54:18;;;;;;;4.10;3.70;;;21.00;91.50;;;;;;4966574;28;86912;-75
2023/09/03 18:56:45;;;;;;;5.93;3.50;;;20.80;91.60;;;;;;4958209;28;87553;-75
2023/09/03 18:59:11;;;;;;;5.25;3.65;;;20.70;92.10;;;;;;4954341;28;89048;-75
2023/09/03 19:01:37;;;;;;;7.68;3.90;;;20.50;92.20;;;;;;4954122;28;86231;-75
2023/09/03 19:04:03;;;;;;;5.88;4.13;;;20.40;92.50;;;;;;4964817;28;86002;-76
2023/09/03 19:06:32;;;;;;;5.22;4.10;;;20.30;92.90;;;;;;4959923;28;89957;-75
2023/09/03 19:08:58;;;;;;;5.50;4.35;;;20.20;93.20;;;;;;4963673;28;86209;-75
2023/09/03 19:11:24;;;;;;;10.55;5.15;;;20.00;93.50;;;;;;4965604;28;86167;-75
2023/09/03 19:13:49;;;;;;;10.88;4.28;;;19.80;94.20;;;;;;4967096;28;86000;-74
2023/09/03 19:16:19;;;;;;;4.70;4.13;;;19.70;94.20;;;;;;4964795;28;87778;-74
2023/09/03 19:18:46;;;;;;;9.13;4.97;;;19.60;94.50;;;;;;4968005;28;88437;-75
2023/09/03 19:21:12;;;;;;;8.32;5.05;;;19.50;94.70;;;;;;4964218;28;86409;-75
2023/09/03 19:23:38;;;;;;;6.85;4.78;;;19.40;94.80;;;;;;4968803;28;86731;-74
2023/09/03 19:26:04;;;;;;;6.95;5.07;;;19.40;95.10;;;;;;4963307;28;86130;-75
2023/09/03 19:28:29;;;;;;;5.97;4.60;;;19.20;95.20;;;;;;4953001;28;86693;-75
2023/09/03 19:30:58;;;;;;;5.40;4.80;;;19.10;95.50;;;;;;4956770;28;86736;-75
2023/09/03 19:33:24;;;;;;;5.78;4.70;;;19.10;95.70;;;;;;4961665;28;85923;-75
2023/09/03 19:36:01;;;;;;;12.00;5.25;;;19.00;95.90;;;;;;4965201;28;87933;-75
2023/09/03 19:38:30;;;;;;;7.30;5.00;;;18.80;96.20;;;;;;4962187;28;87143;-75
2023/09/03 19:40:56;;;;;;;8.00;5.45;;;18.70;96.30;;;;;;4956156;28;85836;-75
2023/09/03 19:43:25;;;;;;;8.73;5.75;;;18.60;96.70;;;;;;4954644;28;86850;-75
2023/09/03 19:46:14;;;;;;;6.85;5.82;;;18.50;96.90;;;;;;4960943;28;87066;-75
2023/09/03 19:48:41;;;;;;;6.47;5.47;;;18.40;97.00;;;;;;4959407;28;86788;-75
2023/09/03 19:51:07;;;;;;;9.95;5.80;;;18.30;97.30;;;;;;4964582;28;85964;-75
2023/09/03 19:53:36;;;;;;;7.63;6.38;;;18.20;97.20;;;;;;4963541;28;86990;-74
2023/09/03 19:56:04;;;;;;;9.77;6.15;;;18.20;97.80;;;;;;4961388;28;87593;-75
2023/09/03 19:58:32;;;;;;;7.63;5.95;;;18.10;97.50;;;;;;4961370;28;86971;-75
2023/09/03 20:01:05;;;;;;;6.65;5.75;;;18.10;97.70;;;;;;4965347;28;85714;-75
2023/09/03 20:03:32;;;;;;;8.65;5.95;;;18.00;97.80;;;;;;4957227;28;86037;-75
2023/09/03 20:05:58;;;;;;;7.13;5.85;;;18.00;97.90;;;;;;4957775;28;88201;-75
2023/09/03 20:08:27;;;;;;;8.13;6.43;;;17.90;98.00;;;;;;4950106;28;90216;-74
2023/09/03 20:10:52;;;;;;;7.10;6.05;;;17.90;98.50;;;;;;4946842;28;86490;-76
2023/09/03 20:13:18;;;;;;;7.63;6.63;;;17.80;98.40;;;;;;4951535;28;86072;-75
2023/09/03 20:15:54;;;;;;;7.63;6.55;;;17.70;98.80;;;;;;4982696;28;90123;-75
2023/09/03 20:18:19;;;;;;;7.93;6.60;;;17.60;98.80;;;;;;4963501;28;86075;-74
2023/09/03 20:20:56;;;;;;;7.30;5.95;;;17.50;99.00;;;;;;4965234;28;86860;-75
2023/09/03 20:23:23;;;;;;;8.20;6.60;;;17.40;99.00;;;;;;4965934;28;86382;-74
2023/09/03 20:26:00;;;;;;;7.40;5.72;;;17.40;99.10;;;;;;4958044;28;89170;-74
2023/09/03 20:28:26;;;;;;;8.23;6.28;;;17.40;99.00;;;;;;4965285;28;87056;-75
2023/09/03 20:30:53;;;;;;;7.47;6.50;;;17.30;99.20;;;;;;4964348;28;86276;-75
2023/09/03 20:33:19;;;;;;;7.72;6.65;;;17.30;99.20;;;;;;4962560;28;86421;-75
2023/09/03 20:35:48;;;;;;;6.85;6.03;;;17.20;99.80;;;;;;4963939;28;86561;-75
2023/09/03 20:38:20;;;;;;;6.88;6.13;;;17.10;99.60;;;;;;4964630;28;87018;-73
2023/09/03 20:40:49;;;;;;;8.10;6.18;;;17.10;99.80;;;;;;4967158;28;86187;-72
2023/09/03 20:43:15;;;;;;;7.35;6.07;;;17.00;99.60;;;;;;4967787;28;86087;-73
2023/09/03 20:45:41;;;;;;;9.52;6.53;;;17.00;99.60;;;;;;4940480;28;93354;-73
2023/09/03 20:48:07;;;;;;;9.38;6.78;;;17.00;99.90;;;;;;4970019;28;88138;-73
2023/09/03 20:50:37;;;;;;;11.43;6.95;;;16.90;99.80;;;;;;4978391;28;90519;-73
2023/09/03 20:53:21;;;;;;;8.40;6.22;;;16.80;99.90;;;;;;4975025;28;86111;-72
2023/09/03 20:55:54;;;;;;;10.27;7.03;;;16.70;99.90;;;;;;4966768;28;87215;-74
2023/09/03 20:58:21;;;;;;;9.10;7.10;;;16.70;99.90;;;;;;4967879;28;86524;-73
2023/09/03 21:00:53;;;;;;;7.88;6.72;;;16.60;99.90;;;;;;4965426;28;86380;-73
2023/09/03 21:03:18;;;;;;;11.82;7.40;;;16.60;99.90;;;;;;4965917;28;86210;-73
2023/09/03 21:05:50;;;;;;;12.20;7.22;;;16.60;99.90;;;;;;4963542;28;91408;-73
2023/09/03 21:08:17;;;;;;;11.25;7.30;;;16.50;99.90;;;;;;4964922;28;86354;-73
2023/09/03 21:10:42;;;;;;;9.13;7.50;;;16.40;99.90;;;;;;4966064;28;86357;-73
2023/09/03 21:13:08;;;;;;;11.60;8.05;;;16.40;99.90;;;;;;4965923;28;86648;-73
2023/09/03 21:15:38;;;;;;;11.82;8.02;;;16.30;99.90;;;;;;4963170;28;85798;-72
2023/09/03 21:18:04;;;;;;;11.77;8.43;;;16.30;99.90;;;;;;4963573;28;86421;-73
2023/09/03 21:20:29;;;;;;;12.18;8.90;;;16.30;99.90;;;;;;4964222;28;86497;-73
2023/09/03 21:22:55;;;;;;;11.10;8.40;;;16.20;99.90;;;;;;4964939;28;86218;-73
2023/09/03 21:25:22;;;;;;;12.35;8.80;;;16.20;99.90;;;;;;4966174;28;87887;-73
2023/09/03 21:27:47;;;;;;;13.48;9.18;;;16.10;99.90;;;;;;4966275;28;86533;-74
2023/09/03 21:30:13;;;;;;;11.30;8.00;;;16.10;99.90;;;;;;4967588;28;86018;-73
2023/09/03 21:32:39;;;;;;;17.40;9.23;;;16.10;99.90;;;;;;4966483;28;86397;-74
2023/09/03 21:35:05;;;;;;;12.15;8.68;;;16.10;99.90;;;;;;4966963;28;86570;-74
2023/09/03 21:37:31;;;;;;;11.32;8.95;;;16.00;99.90;;;;;;4958490;28;87484;-74
2023/09/03 21:39:57;;;;;;;12.45;8.60;;;16.00;99.90;;;;;;4994093;28;86446;-74
2023/09/03 21:42:22;;;;;;;10.95;9.05;;;15.90;99.90;;;;;;4963731;28;86510;-73
2023/09/03 21:44:48;;;;;;;13.85;8.57;;;15.90;99.90;;;;;;4964626;28;87692;-75
2023/09/03 21:47:14;;;;;;;12.00;8.90;;;15.90;99.90;;;;;;4971243;28;86565;-74
2023/09/03 21:49:40;;;;;;;15.20;9.45;;;15.80;99.90;;;;;;4979481;28;85907;-74
2023/09/03 21:52:06;;;;;;;14.50;8.95;;;15.80;99.90;;;;;;4964641;28;86152;-74
2023/09/03 21:54:32;;;;;;;11.27;9.02;;;15.80;99.90;;;;;;4965982;28;86510;-74
2023/09/03 21:56:58;;;;;;;14.68;9.82;;;15.70;99.90;;;;;;4965378;28;87081;-74
2023/09/03 21:59:23;;;;;;;13.38;10.93;;;15.70;99.90;;;;;;4961945;28;86464;-74
2023/09/03 22:01:49;;;;;;;15.90;11.02;;;15.70;99.90;;;;;;4961350;28;86399;-74
2023/09/03 22:04:14;;;;;;;12.73;10.07;;;15.70;99.90;;;;;;4961462;28;87571;-74
2023/09/03 22:06:41;;;;;;;14.73;10.82;;;15.60;99.90;;;;;;4962773;28;87313;-74
2023/09/03 22:09:06;;;;;;;13.98;11.48;;;15.60;99.90;;;;;;4965008;28;86244;-74
2023/09/03 22:11:33;;;;;;;13.18;10.18;;;15.60;99.90;;;;;;4960433;28;86319;-74
2023/09/03 22:13:58;;;;;;;14.57;9.75;;;15.50;99.90;;;;;;4964734;28;87177;-74
2023/09/03 22:16:24;;;;;;;16.33;10.82;;;15.50;99.90;;;;;;4964965;28;86780;-73
2023/09/03 22:18:53;;;;;;;13.32;10.35;;;15.50;99.90;;;;;;4962516;28;86115;-73
2023/09/03 22:21:18;;;;;;;12.55;10.20;;;15.50;99.90;;;;;;4962545;28;86794;-73
2023/09/03 22:23:46;;;;;;;16.98;11.13;;;15.40;99.90;;;;;;4959322;28;87442;-74
2023/09/03 22:26:13;;;;;;;16.48;11.30;;;15.40;99.90;;;;;;4963062;28;86489;-74
2023/09/03 22:28:39;;;;;;;16.60;12.18;;;15.40;99.90;;;;;;4964030;28;86600;-74
2023/09/03 22:31:07;;;;;;;15.95;11.65;;;15.40;99.90;;;;;;4965191;28;86618;-73
2023/09/03 22:33:33;;;;;;;17.55;12.32;;;15.30;99.90;;;;;;4963228;28;86696;-73
2023/09/03 22:35:58;;;;;;;16.15;12.35;;;15.30;99.90;;;;;;4962182;28;86254;-74
2023/09/03 22:38:24;;;;;;;13.05;10.18;;;15.30;99.90;;;;;;4962505;28;86635;-74
2023/09/03 22:40:50;;;;;;;19.48;13.43;;;15.20;99.90;;;;;;4960322;28;86135;-73
2023/09/03 22:43:16;;;;;;;17.60;12.88;;;15.30;99.90;;;;;;4961626;28;87904;-72
2023/09/03 22:45:41;;;;;;;17.25;14.20;;;15.20;99.90;;;;;;4962940;28;86679;-73
2023/09/03 22:48:07;;;;;;;18.02;13.57;;;15.20;99.90;;;;;;4960519;28;86252;-73
2023/09/03 22:50:32;;;;;;;13.52;10.80;;;15.20;99.90;;;;;;4961436;28;86733;-73
2023/09/03 22:52:58;;;;;;;20.55;13.57;;;15.10;99.90;;;;;;4961306;28;86368;-73
2023/09/03 22:55:24;;;;;;;19.52;11.80;;;15.10;99.90;;;;;;4959699;28;86482;-73
2023/09/03 22:57:49;;;;;;;22.73;14.18;;;15.00;99.90;;;;;;4962169;28;86781;-73
2023/09/03 23:00:15;;;;;;;15.27;11.57;;;15.00;99.90;;;;;;4963242;28;85850;-73
2023/09/03 23:02:44;;;;;;;15.80;11.02;;;15.00;99.90;;;;;;4960971;28;88198;-74
2023/09/03 23:05:10;;;;;;;14.75;11.10;;;15.00;99.90;;;;;;4961823;28;86429;-74
2023/09/03 23:07:36;;;;;;;15.27;10.88;;;14.90;99.90;;;;;;4963516;28;85838;-73
2023/09/03 23:10:02;;;;;;;17.55;12.77;;;14.90;99.90;;;;;;4960212;28;87025;-74
2023/09/03 23:12:28;;;;;;;17.42;12.30;;;14.80;99.90;;;;;;4961435;28;88120;-74
2023/09/03 23:14:54;;;;;;;18.67;11.85;;;14.70;99.90;;;;;;4963057;28;86792;-73
2023/09/03 23:17:20;;;;;;;18.75;14.25;;;14.70;99.90;;;;;;4960658;28;86252;-73
2023/09/03 23:19:47;;;;;;;22.20;14.35;;;14.70;99.90;;;;;;4961240;28;86454;-73
2023/09/03 23:22:13;;;;;;;17.27;12.68;;;14.60;99.90;;;;;;4961776;28;88193;-73
2023/09/03 23:24:39;;;;;;;16.40;12.23;;;14.60;99.90;;;;;;4964210;28;86885;-73
2023/09/03 23:27:04;;;;;;;17.58;12.23;;;14.60;99.90;;;;;;4960411;28;85854;-73
2023/09/03 23:29:30;;;;;;;16.25;12.43;;;14.60;99.90;;;;;;4961888;28;86113;-73
2023/09/03 23:31:56;;;;;;;15.55;12.60;;;14.60;99.90;;;;;;4960807;28;86794;-74
2023/09/03 23:34:21;;;;;;;19.60;13.20;;;14.60;99.90;;;;;;4963137;28;87014;-73
2023/09/03 23:36:47;;;;;;;16.15;12.65;;;14.50;99.90;;;;;;4964435;28;85927;-73
2023/09/03 23:39:13;;;;;;;19.00;12.35;;;14.50;99.90;;;;;;4963012;28;86115;-74
2023/09/03 23:41:38;;;;;;;16.20;12.10;;;14.50;99.90;;;;;;4962035;28;86573;-74
2023/09/03 23:44:04;;;;;;;18.70;12.80;;;14.40;99.90;;;;;;4961335;28;86598;-73
2023/09/03 23:46:30;;;;;;;18.15;12.60;;;14.40;99.90;;;;;;4961346;28;86095;-74
2023/09/03 23:48:58;;;;;;;19.00;15.27;;;14.40;99.90;;;;;;4960766;28;86816;-73
2023/09/03 23:51:25;;;;;;;21.23;14.38;;;14.30;99.90;;;;;;4962474;28;88087;-73
2023/09/03 23:53:51;;;;;;;20.58;14.25;;;14.30;99.90;;;;;;4959611;28;86510;-73
2023/09/03 23:56:16;;;;;;;17.45;13.57;;;14.30;99.90;;;;;;4959735;28;86859;-74
2023/09/03 23:58:42;;;;;;;17.88;14.02;;;14.30;99.90;;;;;;4961250;28;86365;-73
